sensor_id;sensor_type;location;lat;lon;timestamp;pressure;altitude;pressure_sealevel;temperature;humidity
9695;BME280;4690;52.422;13.486;2022-08-27T00:06:00;100853.03;;;21.75;88.36
9695;BME280;4690;52.422;13.486;2022-08-27T00:08:26;100840.22;;;21.74;88.42
9695;BME280;4690;52.422;13.486;2022-08-27T00:10:52;100841.06;;;21.75;88.78
9695;BME280;4690;52.422;13.486;2022-08-27T00:13:18;100829.06;;;21.74;88.71
9695;BME280;4690;52.422;13.486;2022-08-27T00:15:43;100834.94;;;21.73;88.46
9695;BME280;4690;52.422;13.486;2022-08-27T00:18:09;100824.09;;;21.71;88.82
9695;BME280;4690;52.422;13.486;2022-08-27T00:20:35;100825.22;;;21.70;88.88
9695;BME280;4690;52.422;13.486;2022-08-27T00:23:01;100816.22;;;21.73;88.69
9695;BME280;4690;52.422;13.486;2022-08-27T00:25:27;100815.94;;;21.75;88.85
9695;BME280;4690;52.422;13.486;2022-08-27T00:27:53;100820.38;;;21.76;88.82
9695;BME280;4690;52.422;13.486;2022-08-27T00:30:22;100823.19;;;21.76;88.83
9695;BME280;4690;52.422;13.486;2022-08-27T00:32:48;100831.53;;;21.76;88.49
9695;BME280;4690;52.422;13.486;2022-08-27T00:35:15;100836.00;;;21.77;88.84
9695;BME280;4690;52.422;13.486;2022-08-27T00:37:42;100827.38;;;21.73;88.52
9695;BME280;4690;52.422;13.486;2022-08-27T00:40:14;100827.47;;;21.68;88.52
9695;BME280;4690;52.422;13.486;2022-08-27T00:42:41;100832.75;;;21.69;88.33
9695;BME280;4690;52.422;13.486;2022-08-27T00:45:07;100837.19;;;21.70;88.71
9695;BME280;4690;52.422;13.486;2022-08-27T00:47:39;100830.78;;;21.70;88.33
9695;BME280;4690;52.422;13.486;2022-08-27T00:50:12;100827.72;;;21.71;88.51
9695;BME280;4690;52.422;13.486;2022-08-27T00:52:47;100834.94;;;21.73;88.44
9695;BME280;4690;52.422;13.486;2022-08-27T00:55:21;100832.97;;;21.73;88.30
9695;BME280;4690;52.422;13.486;2022-08-27T00:58:03;100832.47;;;21.71;88.58
9695;BME280;4690;52.422;13.486;2022-08-27T01:00:30;100829.34;;;21.73;88.43
9695;BME280;4690;52.422;13.486;2022-08-27T01:02:56;100829.91;;;21.75;88.84
9695;BME280;4690;52.422;13.486;2022-08-27T01:05:23;100828.75;;;21.76;88.66
9695;BME280;4690;52.422;13.486;2022-08-27T01:08:00;100822.88;;;21.77;88.80
9695;BME280;4690;52.422;13.486;2022-08-27T01:10:27;100818.66;;;21.80;88.44
9695;BME280;4690;52.422;13.486;2022-08-27T01:12:55;100819.50;;;21.80;88.19
9695;BME280;4690;52.422;13.486;2022-08-27T01:15:25;100815.88;;;21.80;88.23
9695;BME280;4690;52.422;13.486;2022-08-27T01:17:52;100817.81;;;21.79;88.65
9695;BME280;4690;52.422;13.486;2022-08-27T01:20:27;100810.31;;;21.80;88.11
9695;BME280;4690;52.422;13.486;2022-08-27T01:25:45;100816.78;;;21.75;88.71
9695;BME280;4690;52.422;13.486;2022-08-27T01:28:12;100820.94;;;21.78;88.83
9695;BME280;4690;52.422;13.486;2022-08-27T01:30:39;100821.22;;;21.76;88.46
9695;BME280;4690;52.422;13.486;2022-08-27T01:33:17;100816.22;;;21.73;88.49
9695;BME280;4690;52.422;13.486;2022-08-27T01:35:46;100822.34;;;21.75;88.75
9695;BME280;4690;52.422;13.486;2022-08-27T01:38:13;100820.09;;;21.77;89.02
9695;BME280;4690;52.422;13.486;2022-08-27T01:40:41;100822.56;;;21.79;88.73
9695;BME280;4690;52.422;13.486;2022-08-27T01:43:07;100813.09;;;21.80;88.89
9695;BME280;4690;52.422;13.486;2022-08-27T01:45:42;100819.19;;;21.82;89.01
9695;BME280;4690;52.422;13.486;2022-08-27T01:48:09;100824.16;;;21.85;89.08
9695;BME280;4690;52.422;13.486;2022-08-27T01:50:38;100840.31;;;21.88;88.46
9695;BME280;4690;52.422;13.486;2022-08-27T01:53:11;100831.09;;;21.87;88.32
9695;BME280;4690;52.422;13.486;2022-08-27T01:55:40;100828.03;;;21.89;88.54
9695;BME280;4690;52.422;13.486;2022-08-27T01:58:07;100826.88;;;21.90;88.43
9695;BME280;4690;52.422;13.486;2022-08-27T02:00:38;100828.03;;;21.89;88.93
9695;BME280;4690;52.422;13.486;2022-08-27T02:03:07;100819.34;;;21.90;88.78
9695;BME280;4690;52.422;13.486;2022-08-27T02:05:34;100833.53;;;21.94;88.56
9695;BME280;4690;52.422;13.486;2022-08-27T02:08:00;100830.75;;;21.94;88.72
9695;BME280;4690;52.422;13.486;2022-08-27T02:10:32;100840.75;;;21.95;89.14
9695;BME280;4690;52.422;13.486;2022-08-27T02:12:58;100839.34;;;21.98;89.02
9695;BME280;4690;52.422;13.486;2022-08-27T02:15:27;100841.84;;;21.99;88.62
9695;BME280;4690;52.422;13.486;2022-08-27T02:17:54;100847.72;;;21.98;88.99
9695;BME280;4690;52.422;13.486;2022-08-27T02:20:21;100837.59;;;22.02;88.63
9695;BME280;4690;52.422;13.486;2022-08-27T02:22:48;100838.94;;;22.04;88.30
9695;BME280;4690;52.422;13.486;2022-08-27T02:25:15;100841.75;;;22.04;88.84
9695;BME280;4690;52.422;13.486;2022-08-27T02:27:45;100843.47;;;22.00;88.35
9695;BME280;4690;52.422;13.486;2022-08-27T02:30:15;100840.16;;;21.98;88.72
9695;BME280;4690;52.422;13.486;2022-08-27T02:32:41;100834.03;;;21.96;88.63
9695;BME280;4690;52.422;13.486;2022-08-27T02:35:08;100845.19;;;21.96;88.85
9695;BME280;4690;52.422;13.486;2022-08-27T02:37:35;100845.81;;;21.93;88.93
9695;BME280;4690;52.422;13.486;2022-08-27T02:40:05;100852.53;;;21.92;89.07
9695;BME280;4690;52.422;13.486;2022-08-27T02:42:31;100852.75;;;21.96;89.25
9695;BME280;4690;52.422;13.486;2022-08-27T02:44:57;100852.25;;;21.93;89.15
9695;BME280;4690;52.422;13.486;2022-08-27T02:47:23;100849.75;;;21.92;89.01
9695;BME280;4690;52.422;13.486;2022-08-27T02:49:49;100854.78;;;21.90;89.07
9695;BME280;4690;52.422;13.486;2022-08-27T02:52:16;100853.34;;;21.92;89.56
9695;BME280;4690;52.422;13.486;2022-08-27T02:54:42;100853.66;;;21.91;89.46
9695;BME280;4690;52.422;13.486;2022-08-27T02:57:09;100849.75;;;21.92;89.57
9695;BME280;4690;52.422;13.486;2022-08-27T02:59:35;100852.25;;;21.93;89.66
9695;BME280;4690;52.422;13.486;2022-08-27T03:02:01;100853.88;;;21.94;89.45
9695;BME280;4690;52.422;13.486;2022-08-27T03:04:27;100844.09;;;21.97;89.28
9695;BME280;4690;52.422;13.486;2022-08-27T03:06:54;100860.84;;;21.97;89.38
9695;BME280;4690;52.422;13.486;2022-08-27T03:09:20;100848.25;;;22.00;89.66
9695;BME280;4690;52.422;13.486;2022-08-27T03:11:46;100857.66;;;22.04;89.06
9695;BME280;4690;52.422;13.486;2022-08-27T03:14:12;100845.59;;;22.08;89.32
9695;BME280;4690;52.422;13.486;2022-08-27T03:16:38;100844.16;;;22.11;88.81
9695;BME280;4690;52.422;13.486;2022-08-27T03:19:05;100845.00;;;22.11;89.36
9695;BME280;4690;52.422;13.486;2022-08-27T03:21:34;100851.13;;;22.13;89.45
9695;BME280;4690;52.422;13.486;2022-08-27T03:24:00;100841.59;;;22.14;88.95
9695;BME280;4690;52.422;13.486;2022-08-27T03:26:28;100851.03;;;22.19;89.29
9695;BME280;4690;52.422;13.486;2022-08-27T03:28:54;100844.63;;;22.18;89.18
9695;BME280;4690;52.422;13.486;2022-08-27T03:31:23;100836.25;;;22.18;89.17
9695;BME280;4690;52.422;13.486;2022-08-27T03:33:56;100839.59;;;22.20;89.39
9695;BME280;4690;52.422;13.486;2022-08-27T03:36:25;100842.09;;;22.22;88.94
9695;BME280;4690;52.422;13.486;2022-08-27T03:38:51;100844.03;;;22.21;88.96
9695;BME280;4690;52.422;13.486;2022-08-27T03:41:17;100840.72;;;22.19;88.77
9695;BME280;4690;52.422;13.486;2022-08-27T03:43:43;100840.13;;;22.22;89.15
9695;BME280;4690;52.422;13.486;2022-08-27T03:46:09;100838.97;;;22.23;88.83
9695;BME280;4690;52.422;13.486;2022-08-27T03:48:36;100838.44;;;22.21;88.83
9695;BME280;4690;52.422;13.486;2022-08-27T03:51:10;100843.41;;;22.24;88.69
9695;BME280;4690;52.422;13.486;2022-08-27T03:53:39;100843.13;;;22.26;89.13
9695;BME280;4690;52.422;13.486;2022-08-27T03:56:07;100841.16;;;22.26;89.09
9695;BME280;4690;52.422;13.486;2022-08-27T03:58:35;100839.72;;;22.29;88.60
9695;BME280;4690;52.422;13.486;2022-08-27T04:01:03;100832.50;;;22.28;88.90
9695;BME280;4690;52.422;13.486;2022-08-27T04:03:30;100841.38;;;22.30;88.62
9695;BME280;4690;52.422;13.486;2022-08-27T04:05:58;100835.28;;;22.28;89.15
9695;BME280;4690;52.422;13.486;2022-08-27T04:08:25;100826.91;;;22.28;88.91
9695;BME280;4690;52.422;13.486;2022-08-27T04:10:53;100833.63;;;22.27;89.11
9695;BME280;4690;52.422;13.486;2022-08-27T04:13:21;100827.19;;;22.26;89.28
9695;BME280;4690;52.422;13.486;2022-08-27T04:15:50;100832.50;;;22.28;89.33
9695;BME280;4690;52.422;13.486;2022-08-27T04:18:17;100835.91;;;22.25;89.07
9695;BME280;4690;52.422;13.486;2022-08-27T04:20:45;100829.72;;;22.28;89.17
9695;BME280;4690;52.422;13.486;2022-08-27T04:23:12;100837.25;;;22.27;89.20
9695;BME280;4690;52.422;13.486;2022-08-27T04:25:40;100838.91;;;22.28;89.20
9695;BME280;4690;52.422;13.486;2022-08-27T04:28:07;100834.16;;;22.29;89.07
9695;BME280;4690;52.422;13.486;2022-08-27T04:30:37;100834.47;;;22.27;89.49
9695;BME280;4690;52.422;13.486;2022-08-27T04:33:02;100840.88;;;22.28;88.75
9695;BME280;4690;52.422;13.486;2022-08-27T04:35:29;100835.50;;;22.31;89.04
9695;BME280;4690;52.422;13.486;2022-08-27T04:37:57;100834.69;;;22.31;88.61
9695;BME280;4690;52.422;13.486;2022-08-27T04:40:23;100835.28;;;22.28;88.34
9695;BME280;4690;52.422;13.486;2022-08-27T04:43:08;100834.22;;;22.24;88.68
9695;BME280;4690;52.422;13.486;2022-08-27T04:45:45;100842.59;;;22.24;88.73
9695;BME280;4690;52.422;13.486;2022-08-27T04:48:14;100846.53;;;22.23;88.85
9695;BME280;4690;52.422;13.486;2022-08-27T04:50:43;100847.91;;;22.25;88.74
9695;BME280;4690;52.422;13.486;2022-08-27T04:53:11;100847.56;;;22.27;88.74
9695;BME280;4690;52.422;13.486;2022-08-27T04:55:45;100850.97;;;22.24;88.29
9695;BME280;4690;52.422;13.486;2022-08-27T04:58:12;100852.41;;;22.21;88.95
9695;BME280;4690;52.422;13.486;2022-08-27T05:00:51;100856.63;;;22.19;88.43
9695;BME280;4690;52.422;13.486;2022-08-27T05:03:21;100856.38;;;22.15;89.00
9695;BME280;4690;52.422;13.486;2022-08-27T05:05:56;100851.63;;;22.15;89.07
9695;BME280;4690;52.422;13.486;2022-08-27T05:08:23;100854.41;;;22.15;88.72
9695;BME280;4690;52.422;13.486;2022-08-27T05:10:50;100852.22;;;22.12;89.18
9695;BME280;4690;52.422;13.486;2022-08-27T05:13:18;100856.38;;;22.15;88.75
9695;BME280;4690;52.422;13.486;2022-08-27T05:15:46;100855.81;;;22.18;88.85
9695;BME280;4690;52.422;13.486;2022-08-27T05:18:12;100856.34;;;22.20;88.51
9695;BME280;4690;52.422;13.486;2022-08-27T05:20:46;100854.09;;;22.22;88.82
9695;BME280;4690;52.422;13.486;2022-08-27T05:23:15;100856.06;;;22.22;88.57
9695;BME280;4690;52.422;13.486;2022-08-27T05:25:43;100857.16;;;22.21;88.56
9695;BME280;4690;52.422;13.486;2022-08-27T05:28:12;100854.59;;;22.24;89.21
9695;BME280;4690;52.422;13.486;2022-08-27T05:30:46;100860.16;;;22.24;89.12
9695;BME280;4690;52.422;13.486;2022-08-27T05:33:16;100858.22;;;22.25;89.16
9695;BME280;4690;52.422;13.486;2022-08-27T05:35:55;100852.34;;;22.26;89.15
9695;BME280;4690;52.422;13.486;2022-08-27T05:38:23;100851.22;;;22.27;88.69
9695;BME280;4690;52.422;13.486;2022-08-27T05:40:50;100855.66;;;22.28;88.99
9695;BME280;4690;52.422;13.486;2022-08-27T05:43:28;100854.84;;;22.28;89.12
9695;BME280;4690;52.422;13.486;2022-08-27T05:45:56;100859.81;;;22.31;88.69
9695;BME280;4690;52.422;13.486;2022-08-27T05:48:22;100863.13;;;22.33;88.92
9695;BME280;4690;52.422;13.486;2022-08-27T05:50:47;100860.91;;;22.30;88.94
9695;BME280;4690;52.422;13.486;2022-08-27T05:53:13;100861.16;;;22.33;88.75
9695;BME280;4690;52.422;13.486;2022-08-27T05:55:43;100866.22;;;22.31;88.25
9695;BME280;4690;52.422;13.486;2022-08-27T05:58:11;100860.41;;;22.28;88.71
9695;BME280;4690;52.422;13.486;2022-08-27T06:01:00;100859.28;;;22.29;88.62
9695;BME280;4690;52.422;13.486;2022-08-27T06:03:34;100861.25;;;22.28;88.29
9695;BME280;4690;52.422;13.486;2022-08-27T06:06:02;100860.91;;;22.30;88.62
9695;BME280;4690;52.422;13.486;2022-08-27T06:08:28;100857.00;;;22.31;88.08
9695;BME280;4690;52.422;13.486;2022-08-27T06:10:54;100864.56;;;22.30;88.33
9695;BME280;4690;52.422;13.486;2022-08-27T06:13:21;100869.63;;;22.28;88.88
9695;BME280;4690;52.422;13.486;2022-08-27T06:15:48;100865.06;;;22.32;88.46
9695;BME280;4690;52.422;13.486;2022-08-27T06:18:14;100868.72;;;22.33;88.75
9695;BME280;4690;52.422;13.486;2022-08-27T06:20:39;100871.72;;;22.36;88.48
9695;BME280;4690;52.422;13.486;2022-08-27T06:23:05;100865.00;;;22.37;89.03
9695;BME280;4690;52.422;13.486;2022-08-27T06:25:31;100866.91;;;22.42;89.11
9695;BME280;4690;52.422;13.486;2022-08-27T06:27:58;100876.31;;;22.46;88.95
9695;BME280;4690;52.422;13.486;2022-08-27T06:30:24;100876.22;;;22.51;89.08
9695;BME280;4690;52.422;13.486;2022-08-27T06:32:53;100877.88;;;22.52;89.01
9695;BME280;4690;52.422;13.486;2022-08-27T06:35:19;100883.19;;;22.54;89.02
9695;BME280;4690;52.422;13.486;2022-08-27T06:37:44;100882.88;;;22.55;88.54
9695;BME280;4690;52.422;13.486;2022-08-27T06:40:10;100882.28;;;22.58;89.08
9695;BME280;4690;52.422;13.486;2022-08-27T06:42:36;100888.69;;;22.59;88.29
9695;BME280;4690;52.422;13.486;2022-08-27T06:45:03;100886.72;;;22.59;88.51
9695;BME280;4690;52.422;13.486;2022-08-27T06:47:32;100897.34;;;22.57;88.78
9695;BME280;4690;52.422;13.486;2022-08-27T06:49:58;100888.16;;;22.57;88.62
9695;BME280;4690;52.422;13.486;2022-08-27T06:52:24;100892.91;;;22.56;88.68
9695;BME280;4690;52.422;13.486;2022-08-27T06:54:49;100899.03;;;22.58;88.62
9695;BME280;4690;52.422;13.486;2022-08-27T06:57:16;100895.09;;;22.59;88.86
9695;BME280;4690;52.422;13.486;2022-08-27T06:59:42;100895.94;;;22.60;88.23
9695;BME280;4690;52.422;13.486;2022-08-27T07:02:09;100904.00;;;22.62;88.50
9695;BME280;4690;52.422;13.486;2022-08-27T07:04:35;100907.63;;;22.62;88.71
9695;BME280;4690;52.422;13.486;2022-08-27T07:07:02;100904.50;;;22.64;88.51
9695;BME280;4690;52.422;13.486;2022-08-27T07:09:29;100905.06;;;22.66;88.83
9695;BME280;4690;52.422;13.486;2022-08-27T07:11:57;100907.31;;;22.64;88.14
9695;BME280;4690;52.422;13.486;2022-08-27T07:14:23;100912.91;;;22.64;88.52
9695;BME280;4690;52.422;13.486;2022-08-27T07:16:49;100919.34;;;22.64;88.21
9695;BME280;4690;52.422;13.486;2022-08-27T07:19:16;100909.00;;;22.65;88.45
9695;BME280;4690;52.422;13.486;2022-08-27T07:21:43;100911.47;;;22.66;88.30
9695;BME280;4690;52.422;13.486;2022-08-27T07:24:09;100905.88;;;22.66;88.30
9695;BME280;4690;52.422;13.486;2022-08-27T07:26:40;100911.78;;;22.65;88.21
9695;BME280;4690;52.422;13.486;2022-08-27T07:29:10;100906.19;;;22.65;88.01
9695;BME280;4690;52.422;13.486;2022-08-27T07:31:37;100913.44;;;22.66;88.11
9695;BME280;4690;52.422;13.486;2022-08-27T07:34:05;100906.19;;;22.65;87.89
9695;BME280;4690;52.422;13.486;2022-08-27T07:36:33;100907.84;;;22.66;88.06
9695;BME280;4690;52.422;13.486;2022-08-27T07:38:59;100917.28;;;22.70;87.99
9695;BME280;4690;52.422;13.486;2022-08-27T07:41:25;100914.19;;;22.71;88.36
9695;BME280;4690;52.422;13.486;2022-08-27T07:43:51;100915.25;;;22.75;88.47
9695;BME280;4690;52.422;13.486;2022-08-27T07:46:49;100902.03;;;22.81;88.13
9695;BME280;4690;52.422;13.486;2022-08-27T07:49:19;100904.69;;;22.86;88.73
9695;BME280;4690;52.422;13.486;2022-08-27T07:51:47;100912.72;;;22.93;88.60
9695;BME280;4690;52.422;13.486;2022-08-27T07:54:14;100903.41;;;22.97;88.19
9695;BME280;4690;52.422;13.486;2022-08-27T07:56:40;100907.38;;;22.96;88.30
9695;BME280;4690;52.422;13.486;2022-08-27T07:59:06;100908.72;;;22.99;88.17
9695;BME280;4690;52.422;13.486;2022-08-27T08:01:32;100913.69;;;23.02;88.49
9695;BME280;4690;52.422;13.486;2022-08-27T08:03:58;100917.31;;;23.02;88.02
9695;BME280;4690;52.422;13.486;2022-08-27T08:06:24;100910.38;;;23.00;87.98
9695;BME280;4690;52.422;13.486;2022-08-27T08:08:50;100919.00;;;23.03;87.82
9695;BME280;4690;52.422;13.486;2022-08-27T08:11:18;100920.09;;;23.02;87.63
9695;BME280;4690;52.422;13.486;2022-08-27T08:13:46;100921.78;;;23.03;87.62
9695;BME280;4690;52.422;13.486;2022-08-27T08:16:12;100927.38;;;23.03;87.52
9695;BME280;4690;52.422;13.486;2022-08-27T08:18:38;100922.91;;;23.02;87.22
9695;BME280;4690;52.422;13.486;2022-08-27T08:21:09;100921.78;;;23.03;87.79
9695;BME280;4690;52.422;13.486;2022-08-27T08:23:36;100922.81;;;23.08;87.25
9695;BME280;4690;52.422;13.486;2022-08-27T08:26:03;100917.44;;;23.11;87.63
9695;BME280;4690;52.422;13.486;2022-08-27T08:28:30;100924.91;;;23.16;86.85
9695;BME280;4690;52.422;13.486;2022-08-27T08:30:56;100914.88;;;23.15;86.83
9695;BME280;4690;52.422;13.486;2022-08-27T08:33:23;100905.53;;;23.19;87.34
9695;BME280;4690;52.422;13.486;2022-08-27T08:35:49;100900.03;;;23.14;86.74
9695;BME280;4690;52.422;13.486;2022-08-27T08:38:17;100904.00;;;23.13;86.76
9695;BME280;4690;52.422;13.486;2022-08-27T08:40:48;100897.38;;;23.09;86.56
9695;BME280;4690;52.422;13.486;2022-08-27T08:43:42;100885.31;;;23.09;87.06
9695;BME280;4690;52.422;13.486;2022-08-27T08:51:55;100883.09;;;23.24;86.24
9695;BME280;4690;52.422;13.486;2022-08-27T08:54:26;100891.19;;;23.26;86.40
9695;BME280;4690;52.422;13.486;2022-08-27T08:57:07;100890.56;;;23.29;86.37
9695;BME280;4690;52.422;13.486;2022-08-27T08:59:41;100891.59;;;23.33;86.88
9695;BME280;4690;52.422;13.486;2022-08-27T09:02:12;100898.09;;;23.42;86.54
9695;BME280;4690;52.422;13.486;2022-08-27T09:04:41;100889.53;;;23.53;86.23
9695;BME280;4690;52.422;13.486;2022-08-27T09:07:28;100890.59;;;23.57;86.32
9695;BME280;4690;52.422;13.486;2022-08-27T09:12:58;100870.75;;;23.67;85.41
9695;BME280;4690;52.422;13.486;2022-08-27T09:15:31;100861.53;;;23.66;84.75
9695;BME280;4690;52.422;13.486;2022-08-27T09:18:11;100856.47;;;23.68;84.94
9695;BME280;4690;52.422;13.486;2022-08-27T09:20:39;100863.66;;;23.75;85.02
9695;BME280;4690;52.422;13.486;2022-08-27T09:23:51;100869.97;;;23.80;84.59
9695;BME280;4690;52.422;13.486;2022-08-27T09:26:23;100864.66;;;23.79;84.24
9695;BME280;4690;52.422;13.486;2022-08-27T09:29:01;100869.63;;;23.82;84.21
9695;BME280;4690;52.422;13.486;2022-08-27T09:31:55;100884.16;;;23.84;83.97
9695;BME280;4690;52.422;13.486;2022-08-27T09:34:25;100884.03;;;23.89;84.13
9695;BME280;4690;52.422;13.486;2022-08-27T09:37:07;100886.84;;;23.89;84.72
9695;BME280;4690;52.422;13.486;2022-08-27T09:39:51;100883.41;;;23.92;84.07
9695;BME280;4690;52.422;13.486;2022-08-27T09:42:41;100901.75;;;23.84;83.57
9695;BME280;4690;52.422;13.486;2022-08-27T09:45:23;100906.25;;;23.85;83.61
9695;BME280;4690;52.422;13.486;2022-08-27T09:48:10;100922.41;;;23.88;83.95
9695;BME280;4690;52.422;13.486;2022-08-27T09:50:49;100923.84;;;23.86;83.83
9695;BME280;4690;52.422;13.486;2022-08-27T09:53:42;100932.25;;;23.86;83.94
9695;BME280;4690;52.422;13.486;2022-08-27T09:56:29;100935.25;;;23.89;83.96
9695;BME280;4690;52.422;13.486;2022-08-27T10:01:33;100941.91;;;23.93;84.37
9695;BME280;4690;52.422;13.486;2022-08-27T10:04:11;100945.53;;;23.94;84.37
9695;BME280;4690;52.422;13.486;2022-08-27T10:06:46;100936.59;;;23.92;84.50
9695;BME280;4690;52.422;13.486;2022-08-27T10:12:21;100946.78;;;23.88;84.32
9695;BME280;4690;52.422;13.486;2022-08-27T10:14:57;100939.84;;;23.85;84.31
9695;BME280;4690;52.422;13.486;2022-08-27T10:17:35;100941.56;;;23.81;83.83
9695;BME280;4690;52.422;13.486;2022-08-27T10:23:46;100947.59;;;23.75;84.72
9695;BME280;4690;52.422;13.486;2022-08-27T10:26:51;100945.09;;;23.73;83.81
9695;BME280;4690;52.422;13.486;2022-08-27T10:35:59;100949.56;;;23.74;83.95
9695;BME280;4690;52.422;13.486;2022-08-27T10:41:25;100954.06;;;23.56;83.52
9695;BME280;4690;52.422;13.486;2022-08-27T10:47:02;100953.75;;;23.44;83.16
9695;BME280;4690;52.422;13.486;2022-08-27T10:50:22;100947.97;;;23.40;83.82
9695;BME280;4690;52.422;13.486;2022-08-27T10:56:26;100957.59;;;23.48;84.02
9695;BME280;4690;52.422;13.486;2022-08-27T10:59:16;100957.09;;;23.46;83.34
9695;BME280;4690;52.422;13.486;2022-08-27T11:04:55;100955.00;;;23.38;84.20
9695;BME280;4690;52.422;13.486;2022-08-27T11:07:36;100955.53;;;23.40;85.14
9695;BME280;4690;52.422;13.486;2022-08-27T11:10:27;100956.03;;;23.42;84.80
9695;BME280;4690;52.422;13.486;2022-08-27T11:12:59;100959.34;;;23.44;84.42
9695;BME280;4690;52.422;13.486;2022-08-27T11:15:32;100954.06;;;23.42;84.59
9695;BME280;4690;52.422;13.486;2022-08-27T11:18:34;100956.84;;;23.42;84.38
9695;BME280;4690;52.422;13.486;2022-08-27T11:21:06;100957.09;;;23.46;85.08
9695;BME280;4690;52.422;13.486;2022-08-27T11:23:47;100951.41;;;23.51;85.25
9695;BME280;4690;52.422;13.486;2022-08-27T11:26:14;100952.13;;;23.57;85.47
9695;BME280;4690;52.422;13.486;2022-08-27T11:28:53;100952.75;;;23.67;85.96
9695;BME280;4690;52.422;13.486;2022-08-27T11:31:40;100952.78;;;23.81;86.09
9695;BME280;4690;52.422;13.486;2022-08-27T11:34:39;100948.00;;;23.96;85.98
9695;BME280;4690;52.422;13.486;2022-08-27T11:43:22;100950.44;;;24.38;85.01
9695;BME280;4690;52.422;13.486;2022-08-27T11:45:57;100952.81;;;24.45;84.60
9695;BME280;4690;52.422;13.486;2022-08-27T11:49:01;100949.69;;;24.47;84.25
9695;BME280;4690;52.422;13.486;2022-08-27T11:51:35;100952.09;;;24.53;84.31
9695;BME280;4690;52.422;13.486;2022-08-27T11:54:06;100956.59;;;24.63;84.22
9695;BME280;4690;52.422;13.486;2022-08-27T12:01:55;100945.09;;;24.65;81.32
9695;BME280;4690;52.422;13.486;2022-08-27T12:07:27;100955.97;;;24.66;81.83
9695;BME280;4690;52.422;13.486;2022-08-27T12:13:22;100954.31;;;24.65;82.35
9695;BME280;4690;52.422;13.486;2022-08-27T12:16:19;100955.31;;;24.69;82.40
9695;BME280;4690;52.422;13.486;2022-08-27T12:18:57;100947.56;;;24.66;82.47
9695;BME280;4690;52.422;13.486;2022-08-27T12:27:30;100945.13;;;24.51;82.30
9695;BME280;4690;52.422;13.486;2022-08-27T12:30:28;100945.03;;;24.42;82.38
9695;BME280;4690;52.422;13.486;2022-08-27T12:32:56;100943.16;;;24.37;82.62
9695;BME280;4690;52.422;13.486;2022-08-27T12:35:48;100939.84;;;24.35;82.49
9695;BME280;4690;52.422;13.486;2022-08-27T12:41:01;100936.91;;;24.41;82.18
9695;BME280;4690;52.422;13.486;2022-08-27T12:43:36;100943.78;;;24.48;82.38
9695;BME280;4690;52.422;13.486;2022-08-27T12:46:16;100935.00;;;24.64;82.20
9695;BME280;4690;52.422;13.486;2022-08-27T12:51:28;100929.50;;;25.17;81.78
9695;BME280;4690;52.422;13.486;2022-08-27T12:54:16;100929.25;;;25.36;81.02
9695;BME280;4690;52.422;13.486;2022-08-27T13:00:10;100911.03;;;25.96;78.45
9695;BME280;4690;52.422;13.486;2022-08-27T13:05:22;100910.56;;;26.20;75.38
9695;BME280;4690;52.422;13.486;2022-08-27T13:07:50;100907.91;;;26.24;73.51
9695;BME280;4690;52.422;13.486;2022-08-27T13:10:29;100910.25;;;26.22;73.86
9695;BME280;4690;52.422;13.486;2022-08-27T13:13:09;100904.78;;;26.16;74.28
9695;BME280;4690;52.422;13.486;2022-08-27T13:15:49;100897.47;;;26.07;70.11
9695;BME280;4690;52.422;13.486;2022-08-27T13:18:16;100906.03;;;25.93;70.03
9695;BME280;4690;52.422;13.486;2022-08-27T13:20:43;100906.66;;;25.81;71.64
9695;BME280;4690;52.422;13.486;2022-08-27T13:23:21;100906.63;;;25.72;73.38
9695;BME280;4690;52.422;13.486;2022-08-27T13:26:10;100910.75;;;25.66;74.47
9695;BME280;4690;52.422;13.486;2022-08-27T13:28:40;100902.19;;;25.71;74.92
9695;BME280;4690;52.422;13.486;2022-08-27T13:31:08;100899.28;;;25.85;73.89
9695;BME280;4690;52.422;13.486;2022-08-27T13:33:38;100902.78;;;26.00;73.61
9695;BME280;4690;52.422;13.486;2022-08-27T13:36:05;100901.28;;;26.02;70.93
9695;BME280;4690;52.422;13.486;2022-08-27T13:38:36;100894.34;;;26.08;69.40
9695;BME280;4690;52.422;13.486;2022-08-27T13:41:33;100902.25;;;25.98;70.66
9695;BME280;4690;52.422;13.486;2022-08-27T13:44:16;100903.06;;;25.89;68.91
9695;BME280;4690;52.422;13.486;2022-08-27T13:47:22;100898.88;;;25.78;69.20
9695;BME280;4690;52.422;13.486;2022-08-27T13:49:50;100899.88;;;25.74;69.60
9695;BME280;4690;52.422;13.486;2022-08-27T13:52:33;100897.84;;;25.57;70.22
9695;BME280;4690;52.422;13.486;2022-08-27T13:55:08;100894.66;;;25.49;71.25
9695;BME280;4690;52.422;13.486;2022-08-27T13:57:49;100900.75;;;25.43;71.64
9695;BME280;4690;52.422;13.486;2022-08-27T14:02:53;100897.06;;;25.34;71.09
9695;BME280;4690;52.422;13.486;2022-08-27T14:07:56;100899.97;;;25.20;73.48
9695;BME280;4690;52.422;13.486;2022-08-27T14:10:39;100906.72;;;25.19;75.22
9695;BME280;4690;52.422;13.486;2022-08-27T14:13:20;100896.16;;;25.16;75.98
9695;BME280;4690;52.422;13.486;2022-08-27T14:15:54;100901.75;;;25.16;75.04
9695;BME280;4690;52.422;13.486;2022-08-27T14:18:31;100908.81;;;25.13;74.05
9695;BME280;4690;52.422;13.486;2022-08-27T14:20:59;100905.19;;;25.13;72.97
9695;BME280;4690;52.422;13.486;2022-08-27T14:23:27;100902.75;;;25.20;72.73
9695;BME280;4690;52.422;13.486;2022-08-27T14:26:00;100901.28;;;25.22;72.26
9695;BME280;4690;52.422;13.486;2022-08-27T14:28:26;100892.88;;;25.22;72.62
9695;BME280;4690;52.422;13.486;2022-08-27T14:30:52;100899.34;;;25.23;73.43
9695;BME280;4690;52.422;13.486;2022-08-27T14:33:18;100899.66;;;25.21;72.64
9695;BME280;4690;52.422;13.486;2022-08-27T14:35:44;100893.56;;;25.28;72.90
9695;BME280;4690;52.422;13.486;2022-08-27T14:38:22;100888.47;;;25.30;73.66
9695;BME280;4690;52.422;13.486;2022-08-27T14:40:51;100889.97;;;25.36;74.21
9695;BME280;4690;52.422;13.486;2022-08-27T14:43:18;100897.44;;;25.41;74.97
9695;BME280;4690;52.422;13.486;2022-08-27T14:45:46;100899.28;;;25.45;76.08
9695;BME280;4690;52.422;13.486;2022-08-27T14:48:21;100894.16;;;25.47;75.11